Time;durP1;ratioP1;P1;durP2;ratioP2;P2;SDS_P1;SDS_P2;PMS_P1;PMS_P2;Temp;Humidity;BMP_temperature;BMP_pressure;BME280_temperature;BME280_humidity;BME280_pressure;Samples;Min_cycle;Max_cycle;Signal;HPM_P1;HPM_P2
2022/03/20 00:02:06;;;;;;;16.83;7.10;;;;;;;-1.67;63.00;103308.39;1712310;83;21530;-62
2022/03/20 00:04:33;;;;;;;14.30;7.23;;;;;;;-1.72;62.96;103301.39;1712448;84;21518;-62
2022/03/20 00:07:00;;;;;;;12.80;7.30;;;;;;;-1.74;62.82;103310.14;1712390;84;21617;-62
2022/03/20 00:09:28;;;;;;;13.43;7.73;;;;;;;-1.77;63.10;103307.44;1759078;81;21047;-62
2022/03/20 00:11:55;;;;;;;14.60;7.47;;;;;;;-1.80;63.27;103311.08;1712353;84;21081;-62
2022/03/20 00:14:24;;;;;;;14.50;7.03;;;;;;;-1.84;63.60;103312.98;1712582;84;21025;-62
2022/03/20 00:16:51;;;;;;;13.53;7.13;;;;;;;-1.86;63.95;103303.19;1758896;82;21015;-62
2022/03/20 00:19:19;;;;;;;12.90;7.30;;;;;;;-1.92;64.11;103303.73;1736025;81;21237;-62
2022/03/20 00:21:46;;;;;;;16.13;7.33;;;;;;;-1.96;65.29;103300.98;1771374;79;21062;-62
2022/03/20 00:24:13;;;;;;;14.23;7.53;;;;;;;-1.98;65.48;103310.13;1771236;81;21043;-62
2022/03/20 00:26:41;;;;;;;16.70;7.67;;;;;;;-2.04;65.36;103308.14;1770972;81;21074;-61
2022/03/20 00:29:09;;;;;;;14.87;7.87;;;;;;;-2.07;65.31;103301.28;1771207;81;21007;-62
2022/03/20 00:31:37;;;;;;;17.70;7.53;;;;;;;-2.09;64.56;103297.81;1770969;81;21046;-62
2022/03/20 00:34:04;;;;;;;14.93;7.17;;;;;;;-2.07;64.37;103301.28;1770953;81;21081;-62
2022/03/20 00:36:31;;;;;;;14.03;6.93;;;;;;;-2.04;63.89;103290.06;1771608;81;21010;-62
2022/03/20 00:39:00;;;;;;;17.73;7.67;;;;;;;-2.02;63.68;103291.02;1793406;80;21058;-62
2022/03/20 00:41:27;;;;;;;17.00;8.03;;;;;;;-2.02;63.76;103291.02;1793573;80;21042;-62
2022/03/20 00:43:56;;;;;;;18.07;7.67;;;;;;;-2.06;64.08;103287.00;1770866;81;21012;-62
2022/03/20 00:46:23;;;;;;;15.70;8.20;;;;;;;-2.03;64.18;103286.77;1771163;81;21004;-62
2022/03/20 00:48:52;;;;;;;14.30;7.60;;;;;;;-2.03;64.24;103285.51;1793456;80;21110;-62
2022/03/20 00:51:19;;;;;;;14.70;7.47;;;;;;;-1.99;64.09;103280.61;1793480;80;21082;-63
2022/03/20 00:53:46;;;;;;;15.20;7.50;;;;;;;-1.98;63.98;103288.27;1793767;80;21018;-62
2022/03/20 00:56:14;;;;;;;15.83;7.63;;;;;;;-1.98;63.98;103279.83;1793497;80;21035;-62
2022/03/20 00:58:41;;;;;;;15.63;8.10;;;;;;;-1.99;64.05;103280.20;1769337;80;21066;-62
2022/03/20 01:01:10;;;;;;;13.67;8.07;;;;;;;-2.03;64.05;103284.62;1770922;81;21109;-62
2022/03/20 01:03:38;;;;;;;16.57;8.57;;;;;;;-2.10;64.21;103278.79;1747503;81;21042;-62
2022/03/20 01:06:07;;;;;;;22.60;8.97;;;;;;;-2.09;64.43;103285.19;1770894;81;21522;-63
2022/03/20 01:08:36;;;;;;;20.33;9.90;;;;;;;-2.16;64.80;103288.16;1771186;81;21484;-62
2022/03/20 01:11:07;;;;;;;27.10;11.60;;;;;;;-2.24;65.51;103287.75;1770917;81;21514;-62
2022/03/20 01:13:37;;;;;;;33.83;14.33;;;;;;;-2.25;65.83;103285.13;1793545;80;21019;-62
2022/03/20 01:16:06;;;;;;;31.77;13.33;;;;;;;-2.32;66.33;103276.38;1771094;81;21547;-61
2022/03/20 01:18:33;;;;;;;33.27;13.33;;;;;;;-2.40;66.79;103274.23;1793328;80;21060;-62
2022/03/20 01:21:03;;;;;;;23.47;10.77;;;;;;;-2.40;66.93;103268.79;1770806;81;21011;-62
2022/03/20 01:23:30;;;;;;;18.23;9.40;;;;;;;-2.41;67.00;103275.90;1793492;80;21020;-62
2022/03/20 01:25:58;;;;;;;17.73;8.97;;;;;;;-2.44;66.83;103276.58;1770904;81;21075;-62
2022/03/20 01:28:26;;;;;;;18.13;8.17;;;;;;;-2.35;66.42;103278.75;1771052;81;21035;-62
2022/03/20 01:30:55;;;;;;;16.33;8.23;;;;;;;-2.28;66.18;103279.94;1770934;81;21483;-62
2022/03/20 01:33:22;;;;;;;19.27;10.03;;;;;;;-2.31;66.11;103286.95;1771090;81;21014;-62
2022/03/20 01:35:49;;;;;;;22.63;10.70;;;;;;;-2.39;66.24;103280.63;1768504;80;21530;-63
2022/03/20 01:38:20;;;;;;;23.33;10.60;;;;;;;-2.38;66.65;103278.57;1771167;81;21078;-62
2022/03/20 01:40:48;;;;;;;20.97;10.13;;;;;;;-2.38;66.50;103281.09;1793207;80;21706;-62
2022/03/20 01:43:16;;;;;;;16.73;9.03;;;;;;;-2.43;66.58;103288.42;1770825;81;21578;-62
2022/03/20 01:45:44;;;;;;;17.50;8.80;;;;;;;-2.43;66.54;103279.59;1771195;81;21090;-62
2022/03/20 01:48:12;;;;;;;16.47;8.27;;;;;;;-2.43;66.28;103284.64;1770844;81;21031;-62
2022/03/20 01:50:40;;;;;;;14.70;7.97;;;;;;;-2.44;66.21;103279.50;1771144;81;21042;-62
2022/03/20 01:53:09;;;;;;;18.63;8.50;;;;;;;-2.37;65.97;103291.67;1747460;81;21055;-62
2022/03/20 01:55:36;;;;;;;13.93;7.63;;;;;;;-2.33;65.34;103292.69;1771180;81;21000;-62
2022/03/20 01:58:06;;;;;;;12.17;7.40;;;;;;;-2.31;65.37;103299.58;1770946;81;21047;-62
2022/03/20 02:00:33;;;;;;;17.03;7.97;;;;;;;-2.29;65.46;103288.28;1771052;81;21007;-62
2022/03/20 02:03:01;;;;;;;14.37;7.90;;;;;;;-2.33;65.42;103292.69;1793483;80;21027;-62
2022/03/20 02:05:29;;;;;;;13.13;7.43;;;;;;;-2.34;65.62;103294.34;1793696;80;21014;-62
2022/03/20 02:07:56;;;;;;;20.70;10.07;;;;;;;-2.35;65.45;103295.52;1771131;81;21026;-62
2022/03/20 02:10:35;;;;;;;21.37;10.73;;;;;;;-2.39;66.19;103292.35;1793626;79;21040;-62
2022/03/20 02:12:52;;;;;;;22.77;11.20;;;;;;;-2.42;66.78;103295.19;1769067;81;21050;-62
2022/03/20 02:15:21;;;;;;;21.23;10.40;;;;;;;-2.50;67.29;103300.20;1793307;80;21040;-62
2022/03/20 02:17:50;;;;;;;20.43;9.93;;;;;;;-2.61;67.87;103302.55;1747241;81;21074;-62
2022/03/20 02:20:20;;;;;;;20.53;10.07;;;;;;;-2.65;67.88;103294.34;1766549;81;21551;-61
2022/03/20 02:22:47;;;;;;;19.50;9.93;;;;;;;-2.71;68.09;103301.56;1766650;81;21022;-62
2022/03/20 02:25:17;;;;;;;19.20;10.47;;;;;;;-2.75;68.31;103299.27;1720187;83;21011;-62
2022/03/20 02:27:45;;;;;;;20.23;10.63;;;;;;;-2.84;68.92;103296.21;1766715;81;20995;-62
2022/03/20 02:30:16;;;;;;;19.53;10.53;;;;;;;-2.87;69.07;103292.28;1765131;81;21007;-62
2022/03/20 02:32:49;;;;;;;23.67;10.67;;;;;;;-2.92;69.33;103290.77;1740969;81;21471;-62
2022/03/20 02:35:18;;;;;;;;;;;;;;;-2.96;69.61;103288.86;1737530;82;21031;-62
2022/03/20 02:37:50;;;;;;;21.60;10.63;;;;;;;-3.09;70.18;103288.93;1734690;83;20130;-63
2022/03/20 02:40:21;;;;;;;19.53;10.97;;;;;;;-3.17;70.46;103291.00;1766636;80;21018;-62
2022/03/20 02:42:53;;;;;;;22.20;11.20;;;;;;;-3.21;70.87;103286.58;1720337;83;21070;-62
2022/03/20 02:45:23;;;;;;;26.90;12.00;;;;;;;-3.33;71.43;103294.69;1740790;81;20978;-62
2022/03/20 02:47:52;;;;;;;22.33;11.13;;;;;;;-3.36;71.59;103297.91;1764991;81;21094;-62
2022/03/20 02:50:29;;;;;;;25.80;11.97;;;;;;;-3.39;71.91;103303.15;1766452;81;21038;-63
2022/03/20 02:53:03;;;;;;;28.37;12.77;;;;;;;-3.40;72.13;103302.69;1765109;81;21528;-62
2022/03/20 02:55:35;;;;;;;25.70;12.27;;;;;;;-3.45;72.43;103301.13;1766776;81;21026;-62
2022/03/20 02:58:05;;;;;;;30.30;13.77;;;;;;;-3.49;72.87;103300.11;1734840;82;21081;-62
2022/03/20 03:00:34;;;;;;;31.10;14.40;;;;;;;-3.59;73.30;103301.58;1766675;81;20994;-62
2022/03/20 03:03:04;;;;;;;27.87;12.90;;;;;;;-3.59;73.55;103295.68;1765203;81;21031;-61
2022/03/20 03:05:32;;;;;;;23.07;12.17;;;;;;;-3.64;73.97;103298.80;1766719;81;21026;-61
2022/03/20 03:10:57;;;;;;;27.53;12.47;;;;;;;-3.73;74.21;103290.72;1744833;81;21090;-62
2022/03/20 03:13:34;;;;;;;25.67;12.53;;;;;;;-3.77;74.50;103290.05;1765428;81;21023;-61
2022/03/20 03:16:06;;;;;;;27.30;13.30;;;;;;;-3.85;74.73;103293.77;1766521;81;21062;-61
2022/03/20 03:18:36;;;;;;;27.83;12.07;;;;;;;-3.88;74.69;103288.13;1765267;81;21023;-62
2022/03/20 03:21:04;;;;;;;27.70;12.43;;;;;;;-3.91;74.95;103286.70;1787148;80;21055;-62
2022/03/20 03:23:32;;;;;;;28.57;13.40;;;;;;;-3.98;75.30;103288.36;1762431;81;21035;-62
2022/03/20 03:25:59;;;;;;;27.07;13.10;;;;;;;-4.00;75.59;103283.63;1789779;80;21547;-61
2022/03/20 03:28:34;;;;;;;28.57;13.27;;;;;;;-4.08;76.38;103283.55;1753192;79;21035;-62
2022/03/20 03:30:58;;;;;;;32.27;14.53;;;;;;;-4.13;76.99;103279.50;1794513;79;21031;-61
2022/03/20 03:33:25;;;;;;;32.23;15.43;;;;;;;-4.17;77.55;103281.35;1827869;78;21039;-61
2022/03/20 03:35:57;;;;;;;32.60;14.53;;;;;;;-4.24;78.28;103281.38;1795338;79;21092;-61
2022/03/20 03:38:30;;;;;;;31.37;14.83;;;;;;;-4.34;78.52;103276.91;1828024;78;20995;-61
2022/03/20 03:40:58;;;;;;;31.33;15.07;;;;;;;-4.41;78.96;103278.19;1795481;80;21019;-61
2022/03/20 03:43:26;;;;;;;32.60;14.53;;;;;;;-4.45;79.30;103280.03;1827569;78;21042;-61
2022/03/20 03:45:54;;;;;;;32.37;14.77;;;;;;;-4.45;79.73;103276.27;1795503;80;21032;-61
2022/03/20 03:48:22;;;;;;;30.63;14.00;;;;;;;-4.49;80.19;103278.11;1827595;78;21059;-61
2022/03/20 03:50:53;;;;;;;25.93;12.87;;;;;;;-4.53;80.65;103275.78;1795122;80;20995;-62
2022/03/20 03:53:20;;;;;;;32.23;14.13;;;;;;;-4.56;81.00;103274.34;1827972;78;20999;-62
2022/03/20 03:55:48;;;;;;;29.60;13.90;;;;;;;-4.53;81.55;103276.17;1795498;80;21492;-61
2022/03/20 03:58:15;;;;;;;30.70;14.37;;;;;;;-4.53;81.92;103270.75;1827634;78;20992;-61
2022/03/20 04:00:44;;;;;;;34.13;14.70;;;;;;;-4.50;82.14;103281.02;1795511;80;21012;-62
2022/03/20 04:03:13;;;;;;;30.07;14.23;;;;;;;-4.49;82.81;103291.94;1827967;78;21471;-61
2022/03/20 04:05:40;;;;;;;30.77;14.37;;;;;;;-4.58;83.69;103285.05;1777784;80;21587;-62
2022/03/20 04:08:09;;;;;;;29.20;15.03;;;;;;;-4.56;84.32;103282.25;1827889;78;21057;-61
2022/03/20 04:10:36;;;;;;;33.17;16.10;;;;;;;-4.51;85.02;103283.03;1790587;80;20953;-61
2022/03/20 04:13:04;;;;;;;34.20;14.70;;;;;;;-4.45;85.40;103277.13;1789971;80;21033;-61
2022/03/20 04:15:33;;;;;;;33.87;15.83;;;;;;;-4.38;85.62;103277.50;1790090;80;21013;-61
2022/03/20 04:18:01;;;;;;;31.77;15.10;;;;;;;-4.36;85.76;103279.36;1790190;80;21494;-61
2022/03/20 04:20:30;;;;;;;28.20;13.27;;;;;;;-4.31;86.34;103283.41;1791545;80;21046;-61
2022/03/20 04:25:45;;;;;;;29.13;13.47;;;;;;;-4.25;87.30;103290.07;1793642;80;21005;-61
2022/03/20 04:28:12;;;;;;;25.33;12.93;;;;;;;-4.21;87.42;103292.00;1772030;80;21004;-64
2022/03/20 04:30:40;;;;;;;25.93;12.27;;;;;;;-4.23;87.75;103293.16;1826484;78;21476;-63
2022/03/20 04:33:07;;;;;;;24.20;12.33;;;;;;;-4.13;87.75;103301.28;1826627;78;20956;-62
2022/03/20 04:35:35;;;;;;;25.53;12.43;;;;;;;-4.03;87.74;103302.32;1826170;78;20985;-62
2022/03/20 04:38:04;;;;;;;34.20;14.87;;;;;;;-3.95;87.11;103308.69;1793712;80;21030;-63
2022/03/20 04:40:32;;;;;;;31.47;15.57;;;;;;;-3.83;86.01;103311.94;1792335;79;20977;-62
2022/03/20 04:42:59;;;;;;;40.50;18.40;;;;;;;-3.73;85.62;103314.63;1793841;79;21095;-62
2022/03/20 04:45:28;;;;;;;31.97;16.80;;;;;;;-3.65;84.58;103310.92;1794440;80;21013;-63
2022/03/20 04:58:53;;;;;;;16.73;9.43;;;;;;;-2.93;79.37;103307.91;1786538;80;20988;-61
2022/03/20 05:01:20;;;;;;;14.80;8.33;;;;;;;-2.74;77.47;103310.20;1794704;80;20982;-62
2022/03/20 05:03:47;;;;;;;17.07;9.27;;;;;;;-2.62;76.37;103313.04;1783525;79;21340;-61
2022/03/20 05:06:14;;;;;;;16.33;8.67;;;;;;;-2.49;75.31;103312.45;1812046;79;21531;-62
2022/03/20 05:08:42;;;;;;;17.10;8.73;;;;;;;-2.38;74.93;103313.89;1816364;79;21016;-63
2022/03/20 05:13:55;;;;;;;17.93;9.13;;;;;;;-2.22;72.81;103310.14;1813186;79;21052;-61
2022/03/20 05:16:23;;;;;;;15.97;8.20;;;;;;;-2.19;71.09;103313.61;1790015;80;21056;-61
2022/03/20 05:18:51;;;;;;;17.60;9.13;;;;;;;-2.06;71.65;103316.02;1793097;80;21103;-61
2022/03/20 05:21:20;;;;;;;15.67;8.47;;;;;;;-2.06;70.95;103322.33;1793237;80;21068;-62
2022/03/20 05:23:47;;;;;;;20.37;9.90;;;;;;;-2.00;70.55;103318.88;1793488;80;21067;-62
2022/03/20 05:26:15;;;;;;;22.10;9.43;;;;;;;-1.94;69.62;103314.55;1793743;80;21071;-62
2022/03/20 05:28:44;;;;;;;16.67;8.97;;;;;;;-1.89;69.03;103319.42;1793430;80;21532;-61
2022/03/20 05:31:11;;;;;;;18.90;9.27;;;;;;;-1.93;68.20;103317.53;1769488;80;21024;-61
2022/03/20 05:33:39;;;;;;;19.77;8.80;;;;;;;-1.88;67.23;103311.08;1793786;80;21055;-62
2022/03/20 05:36:06;;;;;;;15.93;8.70;;;;;;;-1.72;67.17;103307.70;1769103;80;21040;-62
2022/03/20 05:38:33;;;;;;;15.57;8.63;;;;;;;-1.74;65.82;103309.28;1793749;80;21077;-62
2022/03/20 05:43:35;;;;;;;16.17;9.00;;;;;;;-1.49;65.55;103323.62;1742320;80;21001;-62
2022/03/20 05:46:03;;;;;;;16.07;8.93;;;;;;;-1.51;64.72;103318.88;1793511;80;21036;-63
2022/03/20 05:48:30;;;;;;;17.63;8.80;;;;;;;-1.39;64.59;103315.25;1793305;80;21076;-62
2022/03/20 05:50:58;;;;;;;15.87;8.07;;;;;;;-1.33;64.03;103318.95;1769433;80;21028;-62
2022/03/20 05:53:26;;;;;;;17.90;8.50;;;;;;;-1.25;63.92;103317.67;1793503;80;21060;-62
2022/03/20 05:58:41;;;;;;;18.90;9.07;;;;;;;-1.02;63.13;103308.69;1793481;80;21513;-63
2022/03/20 06:01:08;;;;;;;16.80;8.87;;;;;;;-0.88;62.02;103321.14;1793741;80;21056;-61
2022/03/20 06:03:37;;;;;;;17.37;8.20;;;;;;;-0.86;61.82;103318.29;1793503;80;21103;-62
2022/03/20 06:06:07;;;;;;;16.37;8.47;;;;;;;-0.66;62.05;103316.31;1793643;80;21052;-62
2022/03/20 06:08:35;;;;;;;18.00;9.10;;;;;;;-0.39;61.47;103310.81;1793389;80;21048;-62
2022/03/20 06:11:03;;;;;;;16.27;8.87;;;;;;;-0.20;60.23;103313.81;1793602;80;21037;-62
2022/03/20 06:13:33;;;;;;;18.03;8.70;;;;;;;-0.17;60.25;103316.87;1793352;80;21532;-62
2022/03/20 06:16:00;;;;;;;17.27;8.70;;;;;;;-0.03;60.38;103322.16;1793569;80;21041;-62
2022/03/20 06:18:27;;;;;;;17.02;8.05;;;;;;;0.14;59.69;103319.09;1793678;80;21528;-62
2022/03/20 06:20:57;;;;;;;18.62;7.92;;;;;;;0.36;57.87;103318.37;1791632;80;21080;-62
2022/03/20 06:23:24;;;;;;;15.13;8.30;;;;;;;0.52;57.33;103318.64;1762068;80;21564;-62
2022/03/20 06:25:52;;;;;;;14.87;7.83;;;;;;;0.52;57.02;103311.03;1761316;80;21048;-62
2022/03/20 06:28:20;;;;;;;14.47;7.92;;;;;;;0.54;56.44;103305.63;1790144;80;21013;-62
2022/03/20 06:30:48;;;;;;;14.50;7.92;;;;;;;0.85;56.10;103296.77;1789895;80;21462;-63
2022/03/20 06:33:16;;;;;;;14.38;6.95;;;;;;;0.89;54.92;103295.70;1790005;80;21025;-62
2022/03/20 06:35:43;;;;;;;13.30;7.10;;;;;;;1.26;52.77;103295.91;1789797;80;21541;-62
2022/03/20 06:38:10;;;;;;;12.70;7.00;;;;;;;1.43;51.60;103286.40;1789728;80;21498;-62
2022/03/20 06:40:38;;;;;;;15.38;7.47;;;;;;;1.69;52.44;103292.88;1789711;80;21079;-62
2022/03/20 06:43:06;;;;;;;12.65;6.75;;;;;;;1.88;52.04;103295.69;1789762;80;21041;-62
2022/03/20 06:45:34;;;;;;;13.40;7.33;;;;;;;1.71;50.57;103292.13;1790209;80;21041;-62
2022/03/20 06:48:01;;;;;;;13.43;7.08;;;;;;;1.84;50.78;103288.35;1761654;80;21119;-62
2022/03/20 06:50:30;;;;;;;11.03;6.37;;;;;;;1.86;51.07;103281.66;1789851;80;21048;-62
2022/03/20 06:53:02;;;;;;;14.63;6.70;;;;;;;1.93;49.70;103273.46;1790053;80;21485;-62
2022/03/20 06:55:30;;;;;;;15.23;6.78;;;;;;;2.13;49.78;103275.45;1789478;80;21025;-62
2022/03/20 06:57:58;;;;;;;10.50;5.65;;;;;;;2.18;48.23;103277.73;1790141;80;21059;-62
2022/03/20 07:00:26;;;;;;;11.57;6.58;;;;;;;2.28;47.67;103280.61;1789731;80;21008;-62
2022/03/20 07:03:00;;;;;;;9.95;5.80;;;;;;;2.19;46.75;103279.48;1788713;80;21025;-62
2022/03/20 07:05:28;;;;;;;13.83;6.03;;;;;;;2.03;46.25;103292.45;1790061;80;21008;-62
2022/03/20 07:07:55;;;;;;;12.20;7.03;;;;;;;1.93;47.70;103288.70;1789854;80;21505;-62
2022/03/20 07:10:25;;;;;;;16.73;7.45;;;;;;;1.86;48.53;103291.81;1789928;80;21063;-63
2022/03/20 07:13:48;;;;;;;13.18;6.87;;;;;;;1.80;49.58;103293.75;1789733;80;21021;-62
2022/03/20 07:15:25;;;;;;;14.60;7.62;;;;;;;1.94;49.98;103291.69;1785939;80;21076;-62
2022/03/20 07:17:54;;;;;;;12.73;7.05;;;;;;;2.04;49.34;103283.14;1790111;80;21060;-62
2022/03/20 07:20:22;;;;;;;11.70;6.90;;;;;;;1.82;48.72;103290.38;1789764;80;21071;-62
2022/03/20 07:22:49;;;;;;;17.20;7.80;;;;;;;1.88;49.62;103291.88;1791774;80;21056;-62
2022/03/20 07:30:47;;;;;;;12.20;6.47;;;;;;;1.74;48.81;103293.48;1769242;80;21072;-62
2022/03/20 07:33:15;;;;;;;11.25;6.25;;;;;;;1.75;48.35;103282.95;1793438;80;21045;-62
2022/03/20 07:35:42;;;;;;;11.08;6.33;;;;;;;1.72;47.68;103291.30;1793386;80;21051;-63
2022/03/20 07:38:09;;;;;;;12.95;6.80;;;;;;;1.77;47.54;103291.48;1793367;80;21108;-63
2022/03/20 07:40:37;;;;;;;11.20;6.55;;;;;;;1.95;47.75;103282.41;1793691;80;21508;-61
2022/03/20 07:43:05;;;;;;;10.78;6.35;;;;;;;1.88;47.18;103285.11;1793323;80;21041;-62
2022/03/20 07:45:32;;;;;;;13.88;6.22;;;;;;;2.06;47.08;103281.52;1769053;80;21060;-62
2022/03/20 07:48:02;;;;;;;11.28;6.22;;;;;;;2.15;46.87;103285.64;1793564;80;21099;-62
2022/03/20 07:50:30;;;;;;;12.98;7.30;;;;;;;2.28;46.13;103294.17;1793499;80;21036;-62
2022/03/20 07:53:00;;;;;;;11.48;6.37;;;;;;;2.20;45.88;103288.81;1792458;80;21540;-64
2022/03/20 07:55:28;;;;;;;12.18;6.10;;;;;;;2.30;45.12;103284.92;1768639;80;21044;-64
2022/03/20 07:57:58;;;;;;;12.37;6.05;;;;;;;2.18;45.41;103286.63;1792738;80;21048;-64
2022/03/20 08:00:27;;;;;;;15.15;6.08;;;;;;;2.29;45.02;103281.05;1792729;80;21039;-63
2022/03/20 08:02:55;;;;;;;11.05;6.00;;;;;;;2.57;45.09;103279.91;1792758;80;21099;-63
2022/03/20 08:05:25;;;;;;;11.85;6.25;;;;;;;2.70;44.43;103286.30;1768582;80;21056;-65
2022/03/20 08:07:56;;;;;;;11.48;6.25;;;;;;;2.54;44.15;103282.36;1792844;80;21532;-63
2022/03/20 08:10:26;;;;;;;10.32;6.03;;;;;;;2.64;43.60;103282.69;1792511;80;21008;-63
2022/03/20 08:12:55;;;;;;;12.20;6.35;;;;;;;2.76;43.03;103288.18;1768404;80;21079;-63
2022/03/20 08:15:24;;;;;;;10.75;5.70;;;;;;;2.89;43.32;103274.17;1792683;80;21040;-64
2022/03/20 08:17:53;;;;;;;10.50;6.10;;;;;;;2.87;43.17;103290.66;1792606;80;21432;-63
2022/03/20 08:20:22;;;;;;;16.60;6.72;;;;;;;3.08;43.62;103286.68;1792532;80;21111;-64
2022/03/20 08:22:52;;;;;;;9.55;6.00;;;;;;;3.22;42.75;103271.81;1764872;80;21104;-63
2022/03/20 08:25:20;;;;;;;11.50;5.83;;;;;;;3.20;41.96;103288.34;1789289;80;21040;-62
2022/03/20 08:27:50;;;;;;;9.43;5.03;;;;;;;3.06;41.61;103289.55;1788846;80;21075;-63
2022/03/20 08:30:20;;;;;;;9.70;5.33;;;;;;;3.23;41.14;103280.34;1789356;80;21049;-62
2022/03/20 08:32:48;;;;;;;9.95;5.30;;;;;;;3.51;40.70;103285.45;1789157;80;20996;-62
2022/03/20 08:35:19;;;;;;;8.35;5.15;;;;;;;3.63;40.74;103276.42;1760479;80;21052;-62
2022/03/20 08:37:49;;;;;;;7.60;4.80;;;;;;;3.48;40.29;103274.30;1789345;80;21092;-62
2022/03/20 08:40:19;;;;;;;8.55;4.95;;;;;;;3.88;40.51;103275.47;1788826;80;21036;-63
2022/03/20 08:42:52;;;;;;;10.90;5.00;;;;;;;4.06;40.61;103276.39;1788746;80;21048;-63
2022/03/20 08:45:24;;;;;;;9.33;5.25;;;;;;;4.14;39.82;103279.59;1788521;80;21044;-62
2022/03/20 08:47:53;;;;;;;10.90;5.28;;;;;;;4.09;39.53;103271.36;1789114;80;21147;-62
2022/03/20 08:50:20;;;;;;;10.32;5.60;;;;;;;4.06;39.19;103269.60;1789115;80;21063;-63
2022/03/20 08:52:53;;;;;;;11.95;5.85;;;;;;;3.98;39.07;103264.70;1789063;80;21239;-63
2022/03/20 08:55:20;;;;;;;8.75;5.28;;;;;;;4.32;38.92;103260.11;1789217;80;21080;-63
2022/03/20 08:57:51;;;;;;;9.05;5.10;;;;;;;4.68;37.48;103266.09;1788086;80;21029;-63
2022/03/20 09:00:20;;;;;;;8.58;4.53;;;;;;;4.53;35.98;103271.26;1789048;80;21099;-62
2022/03/20 09:02:49;;;;;;;8.03;4.72;;;;;;;4.14;35.51;103272.37;1789125;80;21050;-62
2022/03/20 09:05:20;;;;;;;13.18;5.67;;;;;;;4.03;35.28;103274.59;1789029;80;21501;-62
2022/03/20 09:07:50;;;;;;;9.05;4.72;;;;;;;4.20;36.13;103271.25;1788798;80;21043;-62
2022/03/20 09:10:18;;;;;;;8.48;5.10;;;;;;;4.15;36.13;103271.11;1758338;80;21056;-62
2022/03/20 09:12:46;;;;;;;9.45;5.30;;;;;;;4.01;35.79;103266.05;1788322;79;21071;-63
2022/03/20 09:15:16;;;;;;;9.18;5.10;;;;;;;4.08;35.91;103263.28;1788109;80;21100;-62
2022/03/20 09:20:38;;;;;;;6.97;4.62;;;;;;;4.43;36.00;103260.80;1789158;80;21121;-62
2022/03/20 09:23:08;;;;;;;7.62;4.70;;;;;;;4.45;35.50;103258.73;1789050;80;21087;-62
2022/03/20 09:25:36;;;;;;;8.80;4.15;;;;;;;4.38;34.57;103252.61;1789261;80;21052;-63
2022/03/20 09:28:06;;;;;;;8.88;4.47;;;;;;;4.38;34.24;103251.75;1789120;80;21009;-63
2022/03/20 09:30:37;;;;;;;8.50;4.50;;;;;;;4.48;34.42;103241.35;1789225;80;21036;-62
2022/03/20 09:33:05;;;;;;;9.20;4.47;;;;;;;4.80;34.57;103232.80;1760728;80;21369;-62
2022/03/20 09:35:36;;;;;;;11.75;4.62;;;;;;;4.98;34.24;103243.85;1788625;80;21005;-63
2022/03/20 09:38:11;;;;;;;7.53;4.67;;;;;;;4.94;33.92;103225.88;1789081;80;21052;-62
2022/03/20 09:40:38;;;;;;;8.88;4.67;;;;;;;4.89;33.20;103235.14;1787730;80;20997;-63
2022/03/20 09:43:06;;;;;;;7.80;4.15;;;;;;;4.79;33.32;103230.23;1788651;80;20981;-62
2022/03/20 09:45:35;;;;;;;7.25;4.37;;;;;;;4.82;33.15;103225.17;1788155;80;21076;-62
2022/03/20 09:48:05;;;;;;;11.63;4.60;;;;;;;5.06;33.16;103229.14;1788401;80;21537;-62
2022/03/20 09:50:34;;;;;;;10.50;4.72;;;;;;;5.25;32.63;103227.84;1788213;80;21124;-62
2022/03/20 09:53:01;;;;;;;10.98;4.87;;;;;;;5.28;32.79;103227.92;1788588;80;21024;-62
2022/03/20 09:55:29;;;;;;;9.35;4.37;;;;;;;5.10;33.07;103223.27;1789000;80;21354;-63
2022/03/20 09:57:58;;;;;;;7.25;4.50;;;;;;;5.07;32.76;103220.24;1788806;80;21068;-62
2022/03/20 10:00:26;;;;;;;8.83;5.03;;;;;;;5.42;33.27;103219.72;1788581;80;21111;-63
2022/03/20 10:02:53;;;;;;;8.40;4.55;;;;;;;5.56;32.26;103214.89;1786506;80;21042;-63
2022/03/20 10:05:23;;;;;;;8.55;4.75;;;;;;;5.58;32.27;103212.38;1777142;80;21610;-62
2022/03/20 10:07:51;;;;;;;8.90;4.60;;;;;;;5.66;31.90;103226.17;1770275;81;20987;-62
2022/03/20 10:10:26;;;;;;;7.17;4.30;;;;;;;5.65;32.16;103198.88;1780254;79;21051;-63
2022/03/20 10:12:57;;;;;;;9.10;4.67;;;;;;;5.85;31.99;103194.58;1782206;80;21492;-63
2022/03/20 10:15:42;;;;;;;9.08;4.20;;;;;;;6.15;32.10;103195.59;1793828;79;21062;-63
2022/03/20 10:18:22;;;;;;;6.30;3.85;;;;;;;6.21;31.19;103191.86;1794031;80;21018;-63
2022/03/20 10:20:59;;;;;;;9.48;3.87;;;;;;;6.17;31.42;103195.20;1762778;81;21122;-62
2022/03/20 10:23:33;;;;;;;7.22;3.60;;;;;;;6.27;30.96;103191.11;1794337;79;21098;-63
2022/03/20 10:26:06;;;;;;;10.50;4.08;;;;;;;6.24;30.98;103190.61;1793488;80;21063;-62
2022/03/20 10:28:38;;;;;;;5.90;3.75;;;;;;;6.11;30.65;103186.14;1791870;80;21058;-62
2022/03/20 10:31:09;;;;;;;6.10;4.08;;;;;;;6.20;30.94;103187.56;1792454;80;21039;-63
2022/03/20 10:33:40;;;;;;;6.05;3.80;;;;;;;6.36;31.29;103184.42;1793251;80;21003;-63
2022/03/20 10:36:20;;;;;;;8.60;4.00;;;;;;;6.36;30.37;103177.17;1793999;80;21039;-62
2022/03/20 10:38:50;;;;;;;6.10;3.90;;;;;;;6.40;30.45;103173.83;1793697;80;21010;-62
2022/03/20 10:41:34;;;;;;;7.37;3.55;;;;;;;6.26;30.40;103181.69;1793663;80;21018;-62
2022/03/20 10:44:14;;;;;;;6.85;4.08;;;;;;;5.99;30.02;103179.11;1793439;80;21039;-62
2022/03/20 10:46:43;;;;;;;7.12;3.70;;;;;;;6.03;29.96;103180.88;1793731;80;21055;-62
2022/03/20 10:49:16;;;;;;;12.10;4.00;;;;;;;5.87;30.21;103167.34;1792933;80;21625;-62
2022/03/20 10:51:44;;;;;;;6.35;3.87;;;;;;;5.99;30.14;103163.34;1781656;80;21038;-62
2022/03/20 10:54:22;;;;;;;7.87;4.40;;;;;;;6.04;30.72;103170.23;1795290;80;21023;-62
2022/03/20 10:56:58;;;;;;;8.05;3.80;;;;;;;6.14;30.75;103164.05;1794729;80;21495;-62
2022/03/20 10:59:28;;;;;;;7.30;4.25;;;;;;;6.13;30.54;103168.70;1795286;80;21023;-63
2022/03/20 11:01:57;;;;;;;8.05;3.85;;;;;;;6.02;29.88;103163.80;1795689;80;21018;-63
2022/03/20 11:04:28;;;;;;;7.00;4.20;;;;;;;6.18;30.62;103163.66;1795866;80;21023;-62
2022/03/20 11:06:57;;;;;;;8.30;4.25;;;;;;;6.09;29.82;103169.91;1795911;80;21030;-63
2022/03/20 11:09:24;;;;;;;9.45;5.83;;;;;;;6.19;29.81;103154.73;1795549;80;21007;-63
2022/03/20 11:11:58;;;;;;;12.82;5.30;;;;;;;6.11;29.72;103158.86;1795330;80;21134;-62
2022/03/20 11:14:28;;;;;;;8.40;4.58;;;;;;;6.19;30.07;103135.55;1794229;80;21062;-63
2022/03/20 11:17:06;;;;;;;10.28;6.37;;;;;;;6.26;29.50;103139.06;1794954;80;21515;-63
2022/03/20 11:19:38;;;;;;;11.22;7.80;;;;;;;6.26;29.45;103136.93;1795172;80;21166;-64
2022/03/20 11:22:09;;;;;;;10.15;6.37;;;;;;;6.39;29.96;103128.20;1769274;80;21047;-65
2022/03/20 11:24:38;;;;;;;13.10;5.85;;;;;;;6.42;29.95;103131.22;1795798;80;21515;-64
2022/03/20 11:27:08;;;;;;;9.80;5.85;;;;;;;6.32;29.56;103135.32;1769360;80;21013;-64
2022/03/20 11:29:56;;;;;;;9.80;5.42;;;;;;;6.31;29.37;103123.38;1795741;80;20987;-64
2022/03/20 11:32:24;;;;;;;9.90;4.55;;;;;;;6.34;29.58;103125.13;1795545;80;21035;-64
2022/03/20 11:34:53;;;;;;;12.10;5.37;;;;;;;6.21;29.06;103127.48;1796090;80;21519;-64
2022/03/20 11:37:20;;;;;;;6.50;4.12;;;;;;;6.32;29.50;103127.64;1795988;80;21070;-64
2022/03/20 11:40:20;;;;;;;4.80;2.98;;;;;;;6.43;29.10;103125.28;1795650;80;21031;-63
2022/03/20 11:42:49;;;;;;;6.12;3.40;;;;;;;6.54;28.63;103125.42;1795548;80;21074;-63
2022/03/20 11:45:24;;;;;;;5.17;3.35;;;;;;;6.59;28.48;103120.83;1795298;80;21023;-63
2022/03/20 11:47:55;;;;;;;11.12;3.37;;;;;;;6.72;28.39;103114.59;1795472;80;21043;-63
2022/03/20 11:50:28;;;;;;;4.60;3.00;;;;;;;6.84;28.53;103108.79;1788764;80;21027;-63
2022/03/20 11:53:05;;;;;;;5.95;3.25;;;;;;;6.87;28.47;103108.81;1769459;80;20967;-63
2022/03/20 11:55:42;;;;;;;6.50;3.10;;;;;;;6.91;28.46;103099.91;1795473;80;21074;-62
2022/03/20 11:58:21;;;;;;;5.80;3.05;;;;;;;6.85;28.13;103099.83;1795779;80;21042;-64
2022/03/20 12:01:04;;;;;;;7.55;3.40;;;;;;;6.92;28.48;103095.23;1793455;80;21035;-63
2022/03/20 12:04:04;;;;;;;4.75;3.10;;;;;;;6.92;28.05;103091.39;1793597;80;21034;-62
2022/03/20 12:06:46;;;;;;;7.60;3.40;;;;;;;7.01;27.79;103090.24;1795795;80;21012;-63